Time;durP1;ratioP1;P1;durP2;ratioP2;P2;SDS_P1;SDS_P2;PMS_P1;PMS_P2;Temp;Humidity;BMP_temperature;BMP_pressure;BME280_temperature;BME280_humidity;BME280_pressure;Samples;Min_cycle;Max_cycle;Signal;HPM_P1;HPM_P2
2022/01/13 00:02:06;;;;;;;1.20;1.20;;;-0.30;99.90;;;;;;5262062;28;20508;-74
2022/01/13 00:04:39;;;;;;;1.95;1.85;;;-0.40;99.90;;;;;;5255527;28;20055;-73
2022/01/13 00:07:10;;;;;;;1.25;1.25;;;-0.40;99.90;;;;;;5274035;28;20066;-73
2022/01/13 00:09:46;;;;;;;0.50;0.50;;;-0.50;99.90;;;;;;5260126;28;20035;-73
2022/01/13 00:12:19;;;;;;;0.60;0.60;;;-0.50;99.90;;;;;;5236537;28;20491;-73
2022/01/13 00:15:09;;;;;;;0.75;0.75;;;-0.60;99.90;;;;;;5261441;28;20081;-73
2022/01/13 00:17:57;;;;;;;0.50;0.50;;;-0.50;99.90;;;;;;5256847;28;20051;-73
2022/01/13 00:20:48;;;;;;;0.55;0.55;;;-0.50;99.90;;;;;;5231220;28;20036;-73
2022/01/13 00:23:41;;;;;;;0.70;0.70;;;-0.60;99.90;;;;;;5271685;28;20091;-73
2022/01/13 00:26:21;;;;;;;0.50;0.50;;;-0.60;99.90;;;;;;5279640;27;20028;-72
2022/01/13 00:29:04;;;;;;;0.45;0.45;;;-0.60;99.90;;;;;;5246564;28;20096;-72
2022/01/13 00:31:39;;;;;;;0.67;0.67;;;-0.70;99.90;;;;;;5261214;28;20400;-72
2022/01/13 00:34:11;;;;;;;0.68;0.68;;;-0.70;99.90;;;;;;5257477;28;20530;-72
2022/01/13 00:36:46;;;;;;;1.07;1.07;;;-0.60;99.90;;;;;;5261061;28;20583;-72
2022/01/13 00:39:17;;;;;;;0.70;0.70;;;-0.50;99.90;;;;;;5275782;28;20348;-72
2022/01/13 00:41:49;;;;;;;0.50;0.50;;;-0.30;99.90;;;;;;5259810;28;20024;-72
2022/01/13 00:44:24;;;;;;;0.80;0.80;;;-0.40;99.90;;;;;;5259953;28;20027;-72
2022/01/13 00:46:59;;;;;;;1.07;1.07;;;-0.40;99.90;;;;;;5261113;28;20059;-72
2022/01/13 00:49:35;;;;;;;0.70;0.70;;;-0.40;99.90;;;;;;5260262;28;20035;-72
2022/01/13 00:52:09;;;;;;;0.77;0.77;;;-0.30;99.90;;;;;;5259638;28;20039;-73
2022/01/13 00:54:40;;;;;;;0.90;0.90;;;-0.40;99.90;;;;;;5256988;28;20036;-72
2022/01/13 00:57:11;;;;;;;0.65;0.65;;;-0.30;99.90;;;;;;5258834;28;20028;-72
2022/01/13 00:59:42;;;;;;;0.63;0.63;;;-0.40;99.90;;;;;;5258981;28;20023;-72
2022/01/13 01:02:21;;;;;;;1.40;1.40;;;-0.40;99.90;;;;;;5259046;28;20063;-72
2022/01/13 01:04:54;;;;;;;0.50;0.50;;;-0.40;99.90;;;;;;5230399;28;20531;-72
2022/01/13 01:07:31;;;;;;;0.50;0.50;;;-0.40;99.90;;;;;;5269462;28;20043;-72
2022/01/13 01:10:05;;;;;;;0.57;0.57;;;-0.20;99.90;;;;;;5258026;28;20039;-72
2022/01/13 01:12:38;;;;;;;0.73;0.73;;;-0.20;99.90;;;;;;5259606;28;20100;-72
2022/01/13 01:15:11;;;;;;;0.65;0.65;;;-0.20;99.90;;;;;;5259655;28;20106;-73
2022/01/13 01:17:50;;;;;;;0.80;0.80;;;-0.20;99.90;;;;;;5258059;28;20028;-73
2022/01/13 01:20:35;;;;;;;2.17;2.07;;;-0.20;99.90;;;;;;5259047;28;20465;-72
2022/01/13 01:23:14;;;;;;;0.93;0.93;;;-0.20;99.90;;;;;;5255783;28;20030;-72
2022/01/13 01:25:58;;;;;;;1.63;1.57;;;-0.10;99.90;;;;;;5255867;28;20040;-72
2022/01/13 01:28:42;;;;;;;1.20;1.20;;;0.00;99.90;;;;;;5257082;28;20050;-73
2022/01/13 01:31:25;;;;;;;0.70;0.70;;;0.10;99.90;;;;;;5259269;28;20066;-73
2022/01/13 01:34:19;;;;;;;0.70;0.70;;;0.10;99.90;;;;;;5254507;28;20039;-73
2022/01/13 01:36:52;;;;;;;0.40;0.40;;;0.10;99.90;;;;;;5258967;28;20412;-73
2022/01/13 01:39:24;;;;;;;0.60;0.60;;;0.10;99.90;;;;;;5219496;28;20466;-73
2022/01/13 01:41:57;;;;;;;0.88;0.88;;;0.10;99.90;;;;;;5259132;28;20085;-74
2022/01/13 01:44:36;;;;;;;0.50;0.50;;;0.20;99.90;;;;;;5256505;28;20048;-74
2022/01/13 01:47:16;;;;;;;0.57;0.57;;;0.20;99.90;;;;;;5258078;28;20035;-74
2022/01/13 01:49:56;;;;;;;1.17;1.17;;;0.20;99.90;;;;;;5258002;28;20403;-75
2022/01/13 01:52:33;;;;;;;0.55;0.55;;;0.20;99.90;;;;;;5257923;28;20059;-75
2022/01/13 01:55:06;;;;;;;1.52;1.52;;;0.20;99.90;;;;;;5256828;28;20036;-75
2022/01/13 01:57:40;;;;;;;0.47;0.47;;;0.20;99.90;;;;;;5258555;28;20051;-75
2022/01/13 02:00:17;;;;;;;0.50;0.50;;;0.20;99.90;;;;;;5257834;28;20134;-75
2022/01/13 02:02:55;;;;;;;1.02;1.02;;;0.30;99.90;;;;;;5255312;28;20030;-74
2022/01/13 02:05:26;;;;;;;0.70;0.70;;;0.30;99.90;;;;;;5252697;28;20048;-75
2022/01/13 02:07:59;;;;;;;0.70;0.70;;;0.30;99.90;;;;;;5265217;28;20485;-75
2022/01/13 02:10:32;;;;;;;0.82;0.82;;;0.30;99.90;;;;;;5258514;28;20050;-75
2022/01/13 02:13:14;;;;;;;0.50;0.50;;;0.30;99.90;;;;;;5257451;28;20031;-75
2022/01/13 02:16:05;;;;;;;0.98;0.98;;;0.30;99.90;;;;;;5260102;28;20772;-75
2022/01/13 02:18:39;;;;;;;1.85;1.75;;;0.30;99.90;;;;;;5258468;28;20032;-75
2022/01/13 02:21:11;;;;;;;0.43;0.43;;;0.30;99.90;;;;;;5251335;28;20020;-75
2022/01/13 02:23:47;;;;;;;0.90;0.88;;;0.30;99.90;;;;;;5262732;28;20458;-75
2022/01/13 02:26:24;;;;;;;1.00;1.00;;;0.30;99.90;;;;;;5265741;28;20036;-76
2022/01/13 02:29:12;;;;;;;0.60;0.60;;;0.30;99.90;;;;;;5261046;28;20466;-77
2022/01/13 02:31:46;;;;;;;0.57;0.57;;;0.30;99.90;;;;;;5267756;28;20101;-75
2022/01/13 02:34:17;;;;;;;0.70;0.70;;;0.40;99.90;;;;;;5259618;28;20043;-75
2022/01/13 02:36:55;;;;;;;0.93;0.93;;;0.40;99.90;;;;;;5263704;28;20039;-76
2022/01/13 02:39:33;;;;;;;0.40;0.40;;;0.50;99.90;;;;;;5262794;28;20111;-75
2022/01/13 02:42:14;;;;;;;0.55;0.55;;;0.50;99.90;;;;;;5263127;28;20040;-76
2022/01/13 02:45:01;;;;;;;1.60;1.50;;;0.50;99.90;;;;;;5262232;28;20024;-76
2022/01/13 02:50:25;;;;;;;0.60;0.60;;;0.50;99.90;;;;;;5261370;28;20040;-78
2022/01/13 02:52:56;;;;;;;0.45;0.45;;;0.50;99.90;;;;;;5260319;28;20050;-75
2022/01/13 02:55:27;;;;;;;1.05;1.05;;;0.40;99.90;;;;;;5261305;28;20490;-75
2022/01/13 02:57:57;;;;;;;1.23;1.13;;;0.40;99.90;;;;;;5262581;28;20031;-75
2022/01/13 03:00:31;;;;;;;0.60;0.60;;;0.40;99.90;;;;;;5278799;28;20513;-77
2022/01/13 03:03:04;;;;;;;0.60;0.60;;;0.40;99.90;;;;;;5229773;28;20047;-77
2022/01/13 03:05:39;;;;;;;1.63;1.58;;;0.40;99.90;;;;;;5262812;28;20122;-76
2022/01/13 03:08:15;;;;;;;3.55;3.20;;;0.40;99.90;;;;;;5262709;28;20024;-76
2022/01/13 03:10:48;;;;;;;0.90;0.90;;;0.40;99.90;;;;;;5264575;28;20100;-77
2022/01/13 03:13:23;;;;;;;1.15;1.15;;;0.40;99.90;;;;;;5261340;28;20036;-76
2022/01/13 03:15:55;;;;;;;0.70;0.70;;;0.30;99.90;;;;;;5245674;28;20036;-76
2022/01/13 03:18:27;;;;;;;2.63;2.53;;;0.30;99.90;;;;;;5262194;28;20032;-77
2022/01/13 03:21:02;;;;;;;1.33;1.30;;;0.20;99.90;;;;;;5263096;28;20434;-76
2022/01/13 03:23:34;;;;;;;0.60;0.60;;;0.20;99.90;;;;;;5261737;28;20107;-77
2022/01/13 03:26:09;;;;;;;0.50;0.50;;;0.20;99.90;;;;;;5260325;28;20052;-76
2022/01/13 03:28:51;;;;;;;0.50;0.50;;;0.20;99.90;;;;;;5259813;28;20418;-77
2022/01/13 03:31:23;;;;;;;0.60;0.60;;;0.30;99.90;;;;;;5260552;28;20039;-77
2022/01/13 03:33:54;;;;;;;0.60;0.60;;;0.20;99.90;;;;;;5257060;28;20502;-76
2022/01/13 03:36:28;;;;;;;2.07;1.97;;;0.20;99.90;;;;;;5243138;28;20100;-76
2022/01/13 03:39:02;;;;;;;1.08;1.08;;;0.20;99.90;;;;;;5227304;28;20027;-76
2022/01/13 03:41:35;;;;;;;0.80;0.80;;;0.20;99.90;;;;;;5259392;28;20046;-77
2022/01/13 03:44:16;;;;;;;0.73;0.73;;;0.20;99.90;;;;;;5261783;28;20055;-76
2022/01/13 03:46:48;;;;;;;0.52;0.52;;;0.10;99.90;;;;;;5242735;28;20070;-75
2022/01/13 03:49:21;;;;;;;0.85;0.85;;;0.10;99.90;;;;;;5260549;28;20036;-76
2022/01/13 03:52:02;;;;;;;0.93;0.93;;;0.10;99.90;;;;;;5259756;28;20420;-76
2022/01/13 03:54:33;;;;;;;1.58;1.58;;;0.10;99.90;;;;;;5266168;28;20047;-76
2022/01/13 03:57:42;;;;;;;0.60;0.60;;;0.20;99.90;;;;;;5261212;28;20440;-76
2022/01/13 04:01:07;;;;;;;0.73;0.73;;;0.20;99.90;;;;;;5257148;28;20036;-76
2022/01/13 04:03:40;;;;;;;0.90;0.90;;;0.10;99.90;;;;;;5259572;28;20504;-77
2022/01/13 04:06:14;;;;;;;1.33;1.33;;;0.20;99.90;;;;;;5263827;28;20369;-75
2022/01/13 04:08:50;;;;;;;0.73;0.73;;;0.20;99.90;;;;;;5260770;28;20047;-76
2022/01/13 04:11:29;;;;;;;0.60;0.60;;;0.10;99.90;;;;;;5259165;28;20024;-76
2022/01/13 04:14:04;;;;;;;0.77;0.77;;;0.10;99.90;;;;;;5238637;28;20028;-76
2022/01/13 04:16:41;;;;;;;0.77;0.77;;;0.10;99.90;;;;;;5279307;27;20040;-76
2022/01/13 04:19:13;;;;;;;0.50;0.50;;;0.10;99.90;;;;;;5260291;28;20091;-78
2022/01/13 04:21:54;;;;;;;1.15;1.13;;;0.10;99.90;;;;;;5273180;28;20039;-77
2022/01/13 04:24:33;;;;;;;0.80;0.80;;;0.20;99.90;;;;;;5272549;28;20051;-77
2022/01/13 04:27:07;;;;;;;0.80;0.80;;;0.10;99.90;;;;;;5257942;28;20036;-76
2022/01/13 04:29:44;;;;;;;0.50;0.50;;;0.10;99.90;;;;;;5251349;28;20048;-77
2022/01/13 04:32:18;;;;;;;1.67;1.63;;;0.10;99.90;;;;;;5227803;28;20036;-77
2022/01/13 04:34:49;;;;;;;1.13;1.08;;;0.10;99.90;;;;;;5260036;28;20040;-76
2022/01/13 04:37:21;;;;;;;0.60;0.60;;;0.10;99.90;;;;;;5276615;27;20127;-76
2022/01/13 04:39:55;;;;;;;0.70;0.70;;;0.00;99.90;;;;;;5258647;28;20074;-76
2022/01/13 04:42:35;;;;;;;0.70;0.70;;;0.00;99.90;;;;;;5243040;28;20055;-76
2022/01/13 04:45:12;;;;;;;0.68;0.68;;;0.00;99.90;;;;;;5260338;28;20036;-77
2022/01/13 04:47:42;;;;;;;0.60;0.60;;;0.00;99.90;;;;;;5243064;28;20032;-76
2022/01/13 04:50:16;;;;;;;0.45;0.45;;;0.00;99.90;;;;;;5259185;28;20431;-76
2022/01/13 04:52:51;;;;;;;1.13;1.13;;;-0.10;99.90;;;;;;5258717;28;20051;-76
2022/01/13 04:55:29;;;;;;;0.52;0.52;;;-0.10;99.90;;;;;;5241901;28;20246;-76
2022/01/13 04:58:07;;;;;;;0.50;0.50;;;-0.20;99.90;;;;;;5237553;28;20044;-76
2022/01/13 05:00:38;;;;;;;2.07;1.97;;;-0.20;99.90;;;;;;5256381;28;20032;-76
2022/01/13 05:03:09;;;;;;;0.60;0.60;;;-0.20;99.90;;;;;;5259222;28;20043;-76
2022/01/13 05:05:39;;;;;;;1.17;1.17;;;-0.20;99.90;;;;;;5251673;28;20047;-76
2022/01/13 05:08:15;;;;;;;0.93;0.93;;;-0.20;99.90;;;;;;5243876;28;20060;-76
2022/01/13 05:10:48;;;;;;;0.50;0.50;;;-0.20;99.90;;;;;;5282147;28;20051;-75
2022/01/13 05:13:24;;;;;;;1.40;1.27;;;-0.20;99.90;;;;;;5247844;28;20066;-76
2022/01/13 05:16:01;;;;;;;0.52;0.52;;;-0.20;99.90;;;;;;5247314;28;20043;-75
2022/01/13 05:21:24;;;;;;;0.97;0.97;;;-0.10;99.90;;;;;;5270303;28;20111;-75
2022/01/13 05:23:56;;;;;;;1.13;1.13;;;-0.10;99.90;;;;;;5268824;28;20286;-75
2022/01/13 05:26:29;;;;;;;0.50;0.50;;;0.00;99.90;;;;;;5283768;28;20345;-75
2022/01/13 05:29:00;;;;;;;0.60;0.60;;;0.00;99.90;;;;;;5283942;28;20031;-75
2022/01/13 05:31:31;;;;;;;1.15;0.85;;;0.00;99.90;;;;;;5282056;28;20099;-75
2022/01/13 05:34:02;;;;;;;0.73;0.73;;;0.00;99.90;;;;;;5262698;28;20030;-75
2022/01/13 05:36:38;;;;;;;2.15;2.05;;;0.00;99.90;;;;;;5246347;28;20043;-75
2022/01/13 05:39:16;;;;;;;0.57;0.57;;;0.00;99.90;;;;;;5263336;28;20031;-75
2022/01/13 05:41:53;;;;;;;0.80;0.80;;;0.00;99.90;;;;;;5257687;28;20024;-78
2022/01/13 05:44:26;;;;;;;1.10;1.10;;;0.10;99.90;;;;;;5262500;28;20066;-75
2022/01/13 05:46:59;;;;;;;1.33;1.33;;;0.10;99.90;;;;;;5262794;28;20038;-76
2022/01/13 05:49:32;;;;;;;0.90;0.90;;;0.10;99.90;;;;;;5282358;28;20035;-76
2022/01/13 05:52:10;;;;;;;0.90;0.90;;;0.20;99.90;;;;;;5242883;28;20874;-76
2022/01/13 05:54:50;;;;;;;1.63;1.53;;;0.20;99.90;;;;;;5245869;28;20032;-75
2022/01/13 05:57:21;;;;;;;1.05;1.05;;;0.20;99.90;;;;;;5275800;28;20024;-75
2022/01/13 05:59:51;;;;;;;0.70;0.70;;;0.20;99.90;;;;;;5266318;28;20104;-75
2022/01/13 06:02:22;;;;;;;1.80;1.70;;;0.20;99.90;;;;;;5284111;28;20023;-76
2022/01/13 06:05:00;;;;;;;0.93;0.93;;;0.20;99.90;;;;;;5254453;28;20055;-75
2022/01/13 06:07:31;;;;;;;1.10;1.10;;;0.20;99.90;;;;;;5266567;28;20032;-74
2022/01/13 06:10:08;;;;;;;1.67;1.65;;;0.20;99.90;;;;;;5283930;28;20108;-74
2022/01/13 06:12:42;;;;;;;0.77;0.77;;;0.10;99.90;;;;;;5264868;28;20059;-74
2022/01/13 06:15:15;;;;;;;0.93;0.90;;;0.10;99.90;;;;;;5279761;28;20039;-74
2022/01/13 06:17:59;;;;;;;0.73;0.73;;;0.10;99.90;;;;;;5241200;28;20613;-75
2022/01/13 06:20:33;;;;;;;2.40;2.20;;;0.10;99.90;;;;;;5249166;28;20042;-75
2022/01/13 06:23:08;;;;;;;1.05;1.05;;;0.10;99.90;;;;;;5265649;28;20640;-77
2022/01/13 06:25:41;;;;;;;0.98;0.98;;;0.10;99.90;;;;;;5265860;28;20023;-75
2022/01/13 06:28:15;;;;;;;1.10;1.10;;;0.10;99.90;;;;;;5284091;28;20221;-76
2022/01/13 06:30:46;;;;;;;0.95;0.95;;;0.10;99.90;;;;;;5266747;28;20113;-75
2022/01/13 06:33:20;;;;;;;0.68;0.68;;;0.10;99.90;;;;;;5260587;28;20067;-76
2022/01/13 06:35:55;;;;;;;1.23;1.23;;;0.10;99.90;;;;;;5276230;28;20019;-75
2022/01/13 06:38:25;;;;;;;1.75;1.65;;;0.20;99.90;;;;;;5225593;28;20306;-75
2022/01/13 06:41:01;;;;;;;0.70;0.70;;;0.10;99.90;;;;;;5283953;28;20520;-75
2022/01/13 06:43:33;;;;;;;0.60;0.60;;;0.10;99.90;;;;;;5266166;28;20046;-76
2022/01/13 06:46:07;;;;;;;0.57;0.57;;;0.10;99.90;;;;;;5258261;28;20055;-75
2022/01/13 06:48:45;;;;;;;0.95;0.95;;;0.10;99.90;;;;;;5266062;28;20036;-75
2022/01/13 06:51:21;;;;;;;0.60;0.60;;;0.00;99.90;;;;;;5265708;28;20397;-76
2022/01/13 06:53:52;;;;;;;0.77;0.77;;;0.10;99.90;;;;;;5263325;28;20016;-75
2022/01/13 06:56:26;;;;;;;1.15;1.15;;;0.00;99.90;;;;;;5261223;28;20245;-75
2022/01/13 06:58:57;;;;;;;;;;;0.10;99.90;;;;;;5266199;28;20054;-75
2022/01/13 07:01:34;;;;;;;0.60;0.60;;;0.00;99.90;;;;;;5265627;28;19919;-75
2022/01/13 07:04:09;;;;;;;0.60;0.60;;;0.00;99.90;;;;;;5261319;28;20046;-74
2022/01/13 07:06:42;;;;;;;0.80;0.80;;;-0.10;99.90;;;;;;5220241;28;20525;-74
2022/01/13 07:09:17;;;;;;;1.00;1.00;;;-0.10;99.90;;;;;;5259257;28;20023;-75
2022/01/13 07:12:49;;;;;;;3.20;1.50;;;-0.10;99.90;;;;;;5252800;28;20036;-74
2022/01/13 07:15:20;;;;;;;1.38;1.33;;;-0.20;99.90;;;;;;5156472;28;20038;-74
2022/01/13 07:17:53;;;;;;;0.80;0.80;;;-0.20;99.90;;;;;;5156809;28;20050;-74
2022/01/13 07:20:26;;;;;;;1.07;1.07;;;-0.20;99.90;;;;;;5158790;28;20060;-74
2022/01/13 07:22:59;;;;;;;0.70;0.70;;;-0.20;99.90;;;;;;5158980;28;20038;-75
2022/01/13 07:25:36;;;;;;;1.37;1.37;;;-0.20;99.90;;;;;;5144558;28;20046;-75
2022/01/13 07:28:11;;;;;;;1.02;1.02;;;-0.20;99.90;;;;;;5156579;28;20276;-74
2022/01/13 07:30:42;;;;;;;1.98;1.88;;;-0.30;99.90;;;;;;5156589;28;20042;-74
2022/01/13 07:33:16;;;;;;;0.98;0.98;;;-0.30;99.90;;;;;;5123699;28;20605;-76
2022/01/13 07:35:49;;;;;;;0.77;0.77;;;-0.30;99.90;;;;;;5156399;28;20108;-74
2022/01/13 07:38:24;;;;;;;0.77;0.77;;;-0.40;99.90;;;;;;5140354;28;20350;-74
2022/01/13 07:40:57;;;;;;;0.82;0.82;;;-0.30;99.90;;;;;;5139829;28;20034;-75
2022/01/13 07:43:31;;;;;;;1.27;1.27;;;-0.40;99.90;;;;;;5141406;28;20066;-74
2022/01/13 07:46:02;;;;;;;;;;;-0.40;99.90;;;;;;5142991;28;20137;-74
2022/01/13 07:48:34;;;;;;;0.57;0.57;;;-0.30;99.90;;;;;;5170717;28;19940;-74
2022/01/13 07:51:10;;;;;;;2.47;2.35;;;-0.40;99.90;;;;;;5235993;28;20047;-74
2022/01/13 07:53:42;;;;;;;0.60;0.60;;;-0.50;99.90;;;;;;5292223;27;20031;-75
2022/01/13 07:56:13;;;;;;;0.40;0.40;;;-0.40;99.90;;;;;;5282471;28;20024;-74
2022/01/13 07:58:51;;;;;;;1.67;1.63;;;-0.40;99.90;;;;;;5284172;27;20103;-74
2022/01/13 08:01:22;;;;;;;0.60;0.60;;;-0.40;99.90;;;;;;5282110;28;20023;-74
2022/01/13 08:03:53;;;;;;;0.83;0.60;;;-0.40;99.90;;;;;;5264156;28;20604;-75
2022/01/13 08:06:26;;;;;;;0.40;0.40;;;-0.30;99.90;;;;;;5237418;28;20047;-74
2022/01/13 08:09:00;;;;;;;1.90;1.80;;;-0.30;99.90;;;;;;5281704;28;20016;-74
2022/01/13 08:11:34;;;;;;;0.90;0.90;;;-0.30;99.90;;;;;;5263954;28;20030;-75
2022/01/13 08:14:10;;;;;;;1.33;1.33;;;-0.20;99.90;;;;;;5281792;28;20095;-74
2022/01/13 08:16:53;;;;;;;1.30;1.25;;;-0.20;99.90;;;;;;5264984;28;20037;-74
2022/01/13 08:22:19;;;;;;;1.20;1.20;;;-0.20;99.90;;;;;;5265500;28;20576;-74
2022/01/13 08:24:49;;;;;;;0.50;0.50;;;-0.10;99.90;;;;;;5282387;28;20031;-74
2022/01/13 08:27:23;;;;;;;1.33;1.33;;;0.00;99.90;;;;;;5261786;28;20032;-74
2022/01/13 08:29:57;;;;;;;0.80;0.80;;;0.10;99.90;;;;;;5280835;28;20055;-74
2022/01/13 08:32:33;;;;;;;0.63;0.63;;;0.20;99.90;;;;;;5264267;28;20107;-74
2022/01/13 08:35:10;;;;;;;0.88;0.88;;;0.30;99.90;;;;;;5263317;28;20039;-76
2022/01/13 08:37:44;;;;;;;0.40;0.40;;;0.70;99.90;;;;;;5261284;28;20126;-75
2022/01/13 08:40:22;;;;;;;0.57;0.57;;;1.00;99.90;;;;;;5262919;28;20031;-75
2022/01/13 08:42:53;;;;;;;0.45;0.45;;;1.00;99.90;;;;;;5246226;28;20043;-75
2022/01/13 08:45:26;;;;;;;0.70;0.70;;;1.20;99.90;;;;;;5262757;28;20093;-75
2022/01/13 08:48:00;;;;;;;0.82;0.82;;;1.40;99.90;;;;;;5280940;28;20043;-76
2022/01/13 08:50:36;;;;;;;0.60;0.60;;;1.50;99.90;;;;;;5261754;28;20355;-76
2022/01/13 08:53:12;;;;;;;0.70;0.70;;;1.70;99.90;;;;;;5257131;28;20072;-76
2022/01/13 08:55:46;;;;;;;0.70;0.70;;;1.80;99.90;;;;;;5248337;28;20104;-77
2022/01/13 08:58:20;;;;;;;;;;;2.00;99.90;;;;;;5247088;28;20022;-76
2022/01/13 09:01:01;;;;;;;0.70;0.70;;;2.20;99.90;;;;;;5279966;28;19964;-76
2022/01/13 09:03:38;;;;;;;1.70;1.60;;;2.40;99.90;;;;;;5281425;28;20330;-76
2022/01/13 09:06:14;;;;;;;0.50;0.50;;;2.60;99.90;;;;;;5249346;28;20058;-76
2022/01/13 09:08:48;;;;;;;0.55;0.55;;;2.70;99.90;;;;;;5242679;28;20036;-77
2022/01/13 09:11:21;;;;;;;0.85;0.85;;;2.70;99.90;;;;;;5246218;28;20051;-75
2022/01/13 09:13:58;;;;;;;0.50;0.50;;;2.80;99.90;;;;;;5262300;28;20038;-76
2022/01/13 09:16:42;;;;;;;0.73;0.73;;;2.90;99.90;;;;;;5246062;28;20577;-77
2022/01/13 09:19:17;;;;;;;0.73;0.73;;;2.90;99.90;;;;;;5261375;28;20027;-77
2022/01/13 09:21:52;;;;;;;0.75;0.75;;;2.90;99.90;;;;;;5280796;28;20041;-76
2022/01/13 09:24:30;;;;;;;;;;;3.10;99.90;;;;;;5262787;28;20091;-75
2022/01/13 09:27:00;;;;;;;0.60;0.60;;;3.20;99.90;;;;;;5263666;28;20097;-76
2022/01/13 09:29:31;;;;;;;0.90;0.90;;;3.30;99.90;;;;;;5280433;28;20034;-76
2022/01/13 09:32:07;;;;;;;0.40;0.40;;;3.40;99.90;;;;;;5259110;28;20039;-76
2022/01/13 09:34:41;;;;;;;0.40;0.40;;;3.40;99.90;;;;;;5247462;28;20063;-76
2022/01/13 09:37:17;;;;;;;0.88;0.88;;;3.50;99.90;;;;;;5262840;28;20072;-75
2022/01/13 09:39:48;;;;;;;0.55;0.55;;;3.70;99.90;;;;;;5280793;28;20032;-76
2022/01/13 09:42:25;;;;;;;0.73;0.73;;;3.80;99.90;;;;;;5245960;28;20062;-75
2022/01/13 09:45:00;;;;;;;0.50;0.50;;;3.80;99.90;;;;;;5263592;28;20102;-77
2022/01/13 09:47:35;;;;;;;0.40;0.40;;;3.90;99.90;;;;;;5253089;28;20058;-75
2022/01/13 09:50:11;;;;;;;0.73;0.73;;;4.20;99.90;;;;;;5246600;28;20027;-75
2022/01/13 09:52:46;;;;;;;0.45;0.45;;;4.20;99.90;;;;;;5248488;28;20043;-75
2022/01/13 09:55:22;;;;;;;0.95;0.95;;;4.30;99.90;;;;;;5244999;28;20106;-75
2022/01/13 09:58:03;;;;;;;0.60;0.60;;;4.50;99.90;;;;;;5280548;28;20253;-75
2022/01/13 10:00:34;;;;;;;0.68;0.68;;;4.50;99.90;;;;;;5261631;28;20153;-75
2022/01/13 10:03:19;;;;;;;0.57;0.57;;;4.60;99.90;;;;;;5263765;28;20023;-74
2022/01/13 10:06:02;;;;;;;0.50;0.50;;;4.80;99.90;;;;;;5251839;28;20046;-74
2022/01/13 10:09:00;;;;;;;0.40;0.40;;;5.00;99.90;;;;;;5245253;28;20582;-74
2022/01/13 10:11:43;;;;;;;0.85;0.85;;;5.20;99.90;;;;;;5280558;28;20035;-74
2022/01/13 10:17:04;;;;;;;0.73;0.73;;;5.00;99.90;;;;;;5261857;28;20024;-74
2022/01/13 10:19:44;;;;;;;0.60;0.60;;;4.90;99.90;;;;;;5275976;28;20038;-74
2022/01/13 10:22:24;;;;;;;0.60;0.60;;;4.90;99.90;;;;;;5258862;28;20073;-74
2022/01/13 10:24:59;;;;;;;0.60;0.60;;;4.80;99.90;;;;;;5245002;28;20031;-74
2022/01/13 10:27:36;;;;;;;0.70;0.70;;;5.10;99.90;;;;;;5247633;28;20077;-73
2022/01/13 10:30:17;;;;;;;0.60;0.60;;;5.40;99.90;;;;;;5262746;28;20389;-73
2022/01/13 10:32:49;;;;;;;0.55;0.55;;;5.80;99.90;;;;;;5245284;28;20470;-73
2022/01/13 10:35:24;;;;;;;0.75;0.75;;;5.80;99.90;;;;;;5281040;28;20076;-73
2022/01/13 10:38:02;;;;;;;0.68;0.68;;;5.90;99.90;;;;;;5281485;28;20047;-73
2022/01/13 10:40:40;;;;;;;0.40;0.40;;;5.70;99.90;;;;;;5263162;28;20539;-73
2022/01/13 10:43:15;;;;;;;0.90;0.90;;;5.60;99.90;;;;;;5261974;28;20053;-73
2022/01/13 10:45:51;;;;;;;;;;;5.30;99.90;;;;;;5265068;28;20051;-73
2022/01/13 10:48:30;;;;;;;0.50;0.50;;;5.40;99.90;;;;;;5265580;28;19947;-73
2022/01/13 10:51:09;;;;;;;0.57;0.57;;;5.70;99.90;;;;;;5266210;28;20088;-73
2022/01/13 10:53:44;;;;;;;1.98;1.83;;;5.90;99.90;;;;;;5266515;28;20507;-74
2022/01/13 10:56:18;;;;;;;0.50;0.50;;;6.40;99.90;;;;;;5277084;28;20319;-73
2022/01/13 10:58:57;;;;;;;0.73;0.73;;;6.70;99.90;;;;;;5283836;28;20039;-73
2022/01/13 11:01:37;;;;;;;0.65;0.65;;;6.90;99.90;;;;;;5283411;28;20324;-73
2022/01/13 11:04:20;;;;;;;0.57;0.57;;;7.50;99.90;;;;;;5245524;28;20028;-73
2022/01/13 11:07:23;;;;;;;0.50;0.50;;;6.70;99.90;;;;;;5204028;28;20048;-73
2022/01/13 11:10:03;;;;;;;0.60;0.60;;;6.90;99.90;;;;;;5248539;28;20046;-74
2022/01/13 11:12:44;;;;;;;0.73;0.73;;;6.20;99.90;;;;;;5266393;28;20030;-73
2022/01/13 11:15:18;;;;;;;0.50;0.50;;;6.50;99.90;;;;;;5266123;28;20592;-73
2022/01/13 11:17:50;;;;;;;;;;;6.20;99.90;;;;;;5267723;28;20032;-73
2022/01/13 11:20:22;;;;;;;1.30;1.30;;;5.80;99.90;;;;;;5268203;27;19929;-74
2022/01/13 11:23:02;;;;;;;0.80;0.80;;;5.70;99.90;;;;;;5250608;28;20371;-73
2022/01/13 11:25:35;;;;;;;0.65;0.65;;;6.00;99.90;;;;;;5264582;28;20039;-74
2022/01/13 11:28:08;;;;;;;0.73;0.73;;;6.40;99.90;;;;;;5264720;28;20047;-73
2022/01/13 11:30:40;;;;;;;0.88;0.88;;;6.20;99.90;;;;;;5247824;28;20035;-73
2022/01/13 11:33:11;;;;;;;0.60;0.60;;;5.70;99.90;;;;;;5281795;28;20059;-73
2022/01/13 11:35:49;;;;;;;0.70;0.70;;;6.10;99.90;;;;;;5264882;28;20315;-73
2022/01/13 11:38:27;;;;;;;0.40;0.40;;;6.30;99.90;;;;;;5281938;28;20045;-73
2022/01/13 11:41:06;;;;;;;0.80;0.80;;;6.10;99.90;;;;;;5265006;28;20432;-73
2022/01/13 11:43:42;;;;;;;0.80;0.80;;;6.90;99.90;;;;;;5258142;28;20035;-73
2022/01/13 11:46:24;;;;;;;0.60;0.60;;;7.50;99.90;;;;;;5264476;28;20027;-73
2022/01/13 11:49:38;;;;;;;0.75;0.75;;;7.40;99.90;;;;;;5280008;28;20510;-73
2022/01/13 11:52:13;;;;;;;1.60;1.60;;;7.40;99.90;;;;;;5281147;28;20032;-73
2022/01/13 11:54:47;;;;;;;0.90;0.90;;;8.40;99.90;;;;;;5257651;28;20341;-72
2022/01/13 11:57:23;;;;;;;1.10;1.10;;;8.20;99.90;;;;;;5264343;28;20066;-73
2022/01/13 12:00:03;;;;;;;0.70;0.70;;;7.80;99.90;;;;;;5268148;28;20398;-73
2022/01/13 12:02:42;;;;;;;0.60;0.60;;;8.30;99.90;;;;;;5265457;28;20039;-72
2022/01/13 12:05:22;;;;;;;0.65;0.65;;;7.10;99.90;;;;;;5259065;28;20101;-73
2022/01/13 12:08:04;;;;;;;0.50;0.50;;;7.80;99.90;;;;;;5257842;28;20601;-73
2022/01/13 12:10:38;;;;;;;0.80;0.80;;;8.40;99.90;;;;;;5244647;28;20350;-73
2022/01/13 12:13:46;;;;;;;0.77;0.77;;;8.70;99.90;;;;;;5260691;28;20032;-73
2022/01/13 12:16:52;;;;;;;0.60;0.60;;;7.60;99.90;;;;;;5252773;28;20048;-73
2022/01/13 12:19:40;;;;;;;0.90;0.90;;;7.60;99.90;;;;;;5236490;28;20027;-73
2022/01/13 12:22:51;;;;;;;0.52;0.52;;;6.80;99.90;;;;;;5258486;28;20063;-73
2022/01/13 12:25:33;;;;;;;0.80;0.80;;;6.70;99.90;;;;;;5244856;28;20028;-73
2022/01/13 12:28:19;;;;;;;0.80;0.80;;;6.50;99.90;;;;;;5226991;28;20040;-73
2022/01/13 12:30:50;;;;;;;0.73;0.73;;;6.40;99.90;;;;;;5246132;28;20099;-72
2022/01/13 12:33:37;;;;;;;0.80;0.80;;;6.00;99.90;;;;;;5257325;28;20031;-73
2022/01/13 12:36:22;;;;;;;0.80;0.80;;;5.90;99.90;;;;;;5260467;28;20032;-73
2022/01/13 12:39:09;;;;;;;0.50;0.50;;;6.00;99.90;;;;;;5243060;28;20099;-73
2022/01/13 12:42:12;;;;;;;0.60;0.60;;;6.00;99.90;;;;;;5243755;28;20040;-73
2022/01/13 12:47:37;;;;;;;0.50;0.50;;;6.10;99.90;;;;;;5243281;28;20071;-74
2022/01/13 12:50:38;;;;;;;0.40;0.40;;;6.20;99.90;;;;;;5243200;28;20047;-73
2022/01/13 12:53:20;;;;;;;0.60;0.60;;;6.20;99.90;;;;;;5246796;28;20051;-73
2022/01/13 12:56:12;;;;;;;0.68;0.68;;;6.20;99.90;;;;;;5258479;28;20471;-73
2022/01/13 12:58:56;;;;;;;0.70;0.70;;;6.40;99.90;;;;;;5251262;28;20507;-73
2022/01/13 13:01:30;;;;;;;0.60;0.60;;;6.40;99.90;;;;;;5261544;28;20470;-73
2022/01/13 13:04:05;;;;;;;0.60;0.60;;;6.30;99.90;;;;;;5260186;28;20028;-73
2022/01/13 13:06:40;;;;;;;0.60;0.60;;;6.20;99.90;;;;;;5245566;28;20064;-73
2022/01/13 13:09:23;;;;;;;0.40;0.40;;;6.20;99.90;;;;;;5258488;28;20040;-75
2022/01/13 13:12:00;;;;;;;0.60;0.60;;;6.10;99.90;;;;;;5233212;28;20056;-73
2022/01/13 13:17:40;;;;;;;0.70;0.70;;;6.20;99.90;;;;;;5243591;28;20040;-74
2022/01/13 13:20:39;;;;;;;0.50;0.50;;;6.70;99.90;;;;;;5225422;28;20051;-75
2022/01/13 13:23:12;;;;;;;0.68;0.68;;;7.70;99.90;;;;;;5233210;28;20047;-75
2022/01/13 13:25:47;;;;;;;0.70;0.70;;;8.00;99.90;;;;;;5251633;28;20060;-74
2022/01/13 13:28:32;;;;;;;0.68;0.68;;;7.50;99.90;;;;;;5248880;28;20221;-74
2022/01/13 13:31:24;;;;;;;0.73;0.73;;;7.20;99.90;;;;;;5259479;28;20023;-74
2022/01/13 13:34:12;;;;;;;0.60;0.60;;;6.90;99.90;;;;;;5240716;28;20932;-74
2022/01/13 13:36:50;;;;;;;0.73;0.73;;;6.80;99.90;;;;;;5239399;28;20042;-74
2022/01/13 13:39:24;;;;;;;0.90;0.90;;;6.70;99.90;;;;;;5245919;28;20028;-74
2022/01/13 13:42:03;;;;;;;1.45;1.40;;;6.60;99.90;;;;;;5245668;28;20368;-74
2022/01/13 13:44:38;;;;;;;0.60;0.60;;;6.60;99.90;;;;;;5242963;28;20357;-74
2022/01/13 13:47:18;;;;;;;0.45;0.45;;;6.60;99.90;;;;;;5229053;28;20031;-74
2022/01/13 13:49:57;;;;;;;0.75;0.75;;;6.50;99.90;;;;;;5249593;28;20028;-74
2022/01/13 13:52:34;;;;;;;0.70;0.70;;;6.50;99.90;;;;;;5226866;28;20578;-74
2022/01/13 13:55:09;;;;;;;0.60;0.60;;;6.50;99.90;;;;;;5239872;28;20025;-75
2022/01/13 13:57:49;;;;;;;0.70;0.70;;;6.40;99.90;;;;;;5233501;28;20028;-73
2022/01/13 14:00:27;;;;;;;0.60;0.60;;;6.40;99.90;;;;;;5251680;28;20020;-73
2022/01/13 14:03:01;;;;;;;0.88;0.88;;;6.30;99.90;;;;;;5254259;28;20103;-73
2022/01/13 14:05:41;;;;;;;0.88;0.88;;;6.20;99.90;;;;;;5234753;28;20134;-74